Time;durP1;ratioP1;P1;durP2;ratioP2;P2;SDS_P1;SDS_P2;PMS_P1;PMS_P2;Temp;Humidity;BMP_temperature;BMP_pressure;BME280_temperature;BME280_humidity;BME280_pressure;Samples;Min_cycle;Max_cycle;Signal;HPM_P1;HPM_P2
2022/10/04 00:00:25;;;;;;;6.75;1.50;;;7.30;99.90;;;;;;5083009;28;20036;-66
2022/10/04 00:02:55;;;;;;;3.63;1.67;;;7.40;99.90;;;;;;5082489;28;20727;-67
2022/10/04 00:05:23;;;;;;;4.45;1.60;;;7.30;99.90;;;;;;5076615;28;20074;-67
2022/10/04 00:07:56;;;;;;;6.32;1.75;;;7.30;99.90;;;;;;5099437;28;20043;-68
2022/10/04 00:10:27;;;;;;;5.28;1.33;;;7.30;99.90;;;;;;5100547;28;20076;-68
2022/10/04 00:12:59;;;;;;;4.30;1.45;;;7.30;99.90;;;;;;5096563;28;20040;-67
2022/10/04 00:15:29;;;;;;;3.38;1.73;;;7.30;99.90;;;;;;5100024;28;20094;-69
2022/10/04 00:18:07;;;;;;;5.13;1.40;;;7.30;99.90;;;;;;5073178;28;20044;-69
2022/10/04 00:20:52;;;;;;;7.07;1.63;;;7.20;99.90;;;;;;5068957;28;20101;-68
2022/10/04 00:23:23;;;;;;;4.82;1.48;;;7.20;99.90;;;;;;5084431;28;20368;-68
2022/10/04 00:26:21;;;;;;;8.48;1.33;;;7.30;99.90;;;;;;5085014;28;20063;-67
2022/10/04 00:28:48;;;;;;;9.23;1.30;;;7.30;99.90;;;;;;5027004;28;20055;-67
2022/10/04 00:31:26;;;;;;;8.27;1.40;;;7.30;99.90;;;;;;5084853;28;20028;-67
2022/10/04 00:34:07;;;;;;;4.00;1.30;;;7.20;99.90;;;;;;5086055;28;20506;-68
2022/10/04 00:36:41;;;;;;;6.65;1.60;;;7.30;99.90;;;;;;5085520;28;20051;-68
2022/10/04 00:39:07;;;;;;;6.28;1.40;;;7.20;99.90;;;;;;5084864;28;20044;-67
2022/10/04 00:41:38;;;;;;;;;;;7.20;99.90;;;;;;5087301;28;20093;-67
2022/10/04 00:44:14;;;;;;;5.55;1.38;;;7.20;99.90;;;;;;5085816;28;19997;-67
2022/10/04 00:46:41;;;;;;;8.87;1.30;;;7.30;99.90;;;;;;5086797;28;20040;-67
2022/10/04 00:49:10;;;;;;;9.57;1.52;;;7.20;99.90;;;;;;5084475;28;20365;-67
2022/10/04 00:51:51;;;;;;;4.30;1.30;;;7.20;99.90;;;;;;5085769;28;20123;-67
2022/10/04 00:54:40;;;;;;;7.45;1.17;;;7.20;99.90;;;;;;5085516;28;20032;-67
2022/10/04 00:57:15;;;;;;;3.88;1.20;;;7.10;99.90;;;;;;5079524;28;20557;-67
2022/10/04 00:59:49;;;;;;;4.85;1.88;;;7.20;99.90;;;;;;5086365;28;20039;-67
2022/10/04 01:02:22;;;;;;;3.60;1.40;;;7.20;99.90;;;;;;5084090;28;20062;-68
2022/10/04 01:04:59;;;;;;;9.48;1.95;;;7.30;99.90;;;;;;5067195;28;20093;-68
2022/10/04 01:07:35;;;;;;;5.40;1.45;;;7.20;99.90;;;;;;5087199;28;20040;-67
2022/10/04 01:10:30;;;;;;;7.80;1.63;;;7.20;99.90;;;;;;5061877;28;20093;-67
2022/10/04 01:13:17;;;;;;;3.75;1.50;;;7.20;99.90;;;;;;5030907;28;20057;-67
2022/10/04 01:16:18;;;;;;;6.00;1.58;;;7.10;99.90;;;;;;5087239;28;20127;-68
2022/10/04 01:18:45;;;;;;;6.97;1.42;;;7.20;99.90;;;;;;5085435;28;20055;-68
2022/10/04 01:21:26;;;;;;;5.93;1.60;;;7.20;99.90;;;;;;5085941;28;20043;-68
2022/10/04 01:24:14;;;;;;;4.68;1.40;;;7.20;99.90;;;;;;5086894;28;20060;-67
2022/10/04 01:26:44;;;;;;;7.00;1.42;;;7.20;99.90;;;;;;5085540;28;20044;-67
2022/10/04 01:29:23;;;;;;;9.65;1.73;;;7.20;99.90;;;;;;5082999;28;20433;-67
2022/10/04 01:31:51;;;;;;;4.30;1.55;;;7.20;99.90;;;;;;5082579;28;20543;-69
2022/10/04 01:34:20;;;;;;;4.35;1.60;;;7.20;99.90;;;;;;5084174;28;20047;-68
2022/10/04 01:36:47;;;;;;;8.85;1.65;;;7.30;99.90;;;;;;5076289;28;20091;-67
2022/10/04 01:39:15;;;;;;;4.93;1.27;;;7.30;99.90;;;;;;5085904;28;20098;-66
2022/10/04 01:41:44;;;;;;;9.35;1.80;;;7.20;99.90;;;;;;5085399;28;20040;-67
2022/10/04 01:44:26;;;;;;;3.10;1.30;;;7.20;99.90;;;;;;5084838;28;20032;-67
2022/10/04 01:46:58;;;;;;;6.57;1.67;;;7.20;99.90;;;;;;5085411;28;20044;-66
2022/10/04 01:49:29;;;;;;;13.70;1.67;;;7.20;99.90;;;;;;5080469;28;20035;-68
2022/10/04 01:52:14;;;;;;;4.70;1.67;;;7.20;99.90;;;;;;5084707;28;20125;-67
2022/10/04 01:54:44;;;;;;;6.95;1.42;;;7.30;99.90;;;;;;5082861;28;20036;-67
2022/10/04 01:57:15;;;;;;;7.03;1.67;;;7.40;99.90;;;;;;5084428;28;20122;-68
2022/10/04 02:00:00;;;;;;;7.63;1.73;;;7.30;99.90;;;;;;5084585;28;20047;-67
2022/10/04 02:02:51;;;;;;;8.38;2.83;;;7.30;99.90;;;;;;5083457;28;20123;-66
2022/10/04 02:05:26;;;;;;;6.32;1.50;;;7.30;99.90;;;;;;5077577;28;20089;-67
2022/10/04 02:07:54;;;;;;;17.35;2.15;;;7.30;99.90;;;;;;5077574;28;20036;-68
2022/10/04 02:10:22;;;;;;;7.80;1.40;;;7.30;99.90;;;;;;5084533;28;20086;-68
2022/10/04 02:12:53;;;;;;;9.82;2.28;;;7.40;99.90;;;;;;5083051;28;20039;-67
2022/10/04 02:15:23;;;;;;;10.38;2.08;;;7.40;99.90;;;;;;5081304;28;20109;-67
2022/10/04 02:17:50;;;;;;;4.18;1.85;;;7.50;99.90;;;;;;5084684;28;20036;-68
2022/10/04 02:20:22;;;;;;;6.88;1.92;;;7.60;99.90;;;;;;5073561;28;20524;-68
2022/10/04 02:22:51;;;;;;;9.52;1.88;;;7.60;99.90;;;;;;5080274;28;20431;-68
2022/10/04 02:25:18;;;;;;;4.13;1.70;;;7.60;99.90;;;;;;5082560;28;20126;-68
2022/10/04 02:27:44;;;;;;;7.13;1.67;;;7.60;99.90;;;;;;5082907;28;20500;-68
2022/10/04 02:30:11;;;;;;;;;;;7.60;99.90;;;;;;5084425;28;20036;-68
2022/10/04 02:32:58;;;;;;;7.47;2.25;;;7.60;99.90;;;;;;5082542;28;19916;-68
2022/10/04 02:35:29;;;;;;;6.93;1.92;;;7.60;99.90;;;;;;5085015;28;20048;-67
2022/10/04 02:38:12;;;;;;;5.93;1.75;;;7.60;99.90;;;;;;5084282;28;20120;-68
2022/10/04 02:41:03;;;;;;;4.22;1.60;;;7.50;99.90;;;;;;5085268;28;20697;-67
2022/10/04 02:43:47;;;;;;;8.15;1.67;;;7.50;99.90;;;;;;5081891;28;20091;-68
2022/10/04 02:46:20;;;;;;;6.85;1.80;;;7.50;99.90;;;;;;5079605;28;20060;-67
2022/10/04 02:48:47;;;;;;;6.50;2.03;;;7.50;99.90;;;;;;5084554;28;20051;-66
2022/10/04 02:51:39;;;;;;;4.93;2.22;;;7.50;99.90;;;;;;5084790;28;20036;-65
2022/10/04 02:54:29;;;;;;;6.38;1.80;;;7.50;99.90;;;;;;5083908;28;20085;-67
2022/10/04 02:56:56;;;;;;;4.28;1.80;;;7.50;99.90;;;;;;5069136;28;20044;-66
2022/10/04 02:59:22;;;;;;;5.30;1.75;;;7.50;99.90;;;;;;5081559;28;20571;-66
2022/10/04 03:01:50;;;;;;;;;;;7.50;99.90;;;;;;5073968;28;20086;-66
2022/10/04 03:04:19;;;;;;;7.18;2.40;;;7.50;99.90;;;;;;5083431;28;20045;-67
2022/10/04 03:06:46;;;;;;;6.28;1.77;;;7.50;99.90;;;;;;5075015;28;20174;-66
2022/10/04 03:09:14;;;;;;;5.75;2.10;;;7.50;99.90;;;;;;5084013;28;20043;-67
2022/10/04 03:11:41;;;;;;;12.77;2.20;;;7.50;99.90;;;;;;5083974;28;20040;-67
2022/10/04 03:14:14;;;;;;;2.22;1.52;;;7.50;99.90;;;;;;5079504;28;20039;-67
2022/10/04 03:16:44;;;;;;;3.22;1.80;;;7.60;99.90;;;;;;5084106;28;20415;-66
2022/10/04 03:19:11;;;;;;;4.15;1.63;;;7.50;99.90;;;;;;5084052;28;20040;-67
2022/10/04 03:21:39;;;;;;;8.95;1.70;;;7.60;99.90;;;;;;5083172;28;20101;-66
2022/10/04 03:24:06;;;;;;;8.85;1.83;;;7.50;99.90;;;;;;5083464;28;20036;-66
2022/10/04 03:26:43;;;;;;;6.43;1.80;;;7.50;99.90;;;;;;5083610;28;20098;-66
2022/10/04 03:29:11;;;;;;;4.35;1.65;;;7.50;99.90;;;;;;5081112;28;20044;-69
2022/10/04 03:31:41;;;;;;;8.05;2.10;;;7.50;99.90;;;;;;5081519;27;20029;-66
2022/10/04 03:34:14;;;;;;;6.00;1.88;;;7.50;99.90;;;;;;5080985;28;20109;-66
2022/10/04 03:36:41;;;;;;;4.88;1.77;;;7.50;99.90;;;;;;5073895;28;20377;-68
2022/10/04 03:39:09;;;;;;;6.28;1.98;;;7.50;99.90;;;;;;5081763;28;20093;-66
2022/10/04 03:41:38;;;;;;;4.63;1.88;;;7.50;99.90;;;;;;5067194;28;20044;-67
2022/10/04 03:44:07;;;;;;;5.53;1.50;;;7.50;99.90;;;;;;5082958;28;20051;-68
2022/10/04 03:46:34;;;;;;;8.85;2.20;;;7.60;99.90;;;;;;5084037;28;20524;-68
2022/10/04 03:49:00;;;;;;;6.75;2.40;;;7.60;99.90;;;;;;5084165;28;20111;-68
2022/10/04 03:51:27;;;;;;;13.32;1.80;;;7.60;99.90;;;;;;5084624;28;20450;-67
2022/10/04 03:53:58;;;;;;;8.25;2.15;;;7.60;99.90;;;;;;5086422;28;20044;-66
2022/10/04 03:56:35;;;;;;;6.15;1.77;;;7.60;99.90;;;;;;5088597;28;20058;-68
2022/10/04 03:59:04;;;;;;;4.95;2.03;;;7.70;99.90;;;;;;5087621;28;20416;-68
2022/10/04 04:01:47;;;;;;;9.32;2.10;;;7.70;99.90;;;;;;5079246;28;20680;-67
2022/10/04 04:04:24;;;;;;;9.85;1.80;;;7.70;99.90;;;;;;5087022;28;20048;-67
2022/10/04 04:07:02;;;;;;;6.97;1.75;;;7.70;99.90;;;;;;5084780;28;20142;-67
2022/10/04 04:09:47;;;;;;;9.80;2.15;;;7.70;99.90;;;;;;5084820;28;20045;-67
2022/10/04 04:12:38;;;;;;;3.83;2.15;;;7.70;99.90;;;;;;5082942;28;20044;-67
2022/10/04 04:15:09;;;;;;;6.78;2.00;;;7.70;99.90;;;;;;5078294;28;20032;-67
2022/10/04 04:17:37;;;;;;;8.13;2.17;;;7.80;99.90;;;;;;5085765;28;20099;-67
2022/10/04 04:20:11;;;;;;;15.82;2.30;;;7.70;99.90;;;;;;5086935;28;20043;-66
2022/10/04 04:22:40;;;;;;;7.85;1.90;;;7.80;99.90;;;;;;5087388;28;20519;-67
2022/10/04 04:25:12;;;;;;;9.68;2.50;;;7.80;99.90;;;;;;5086606;28;20051;-67
2022/10/04 04:27:40;;;;;;;8.70;2.08;;;7.80;99.90;;;;;;5087283;28;20055;-67
2022/10/04 04:30:07;;;;;;;6.60;1.88;;;7.80;99.90;;;;;;5087070;28;20032;-67
2022/10/04 04:32:44;;;;;;;4.97;1.63;;;7.70;99.90;;;;;;5081977;28;20043;-67
2022/10/04 04:35:31;;;;;;;7.97;2.30;;;7.80;99.90;;;;;;5077289;28;20039;-67
2022/10/04 04:38:18;;;;;;;5.00;1.98;;;7.70;99.90;;;;;;5087662;28;20053;-66
2022/10/04 04:40:44;;;;;;;;;;;7.70;99.90;;;;;;5075952;28;20530;-66
2022/10/04 04:43:15;;;;;;;7.20;2.20;;;7.70;99.90;;;;;;5086606;28;19955;-66
2022/10/04 04:45:41;;;;;;;5.18;1.85;;;7.70;99.90;;;;;;5083014;28;20294;-67
2022/10/04 04:48:08;;;;;;;;;;;7.70;99.90;;;;;;5085099;28;20479;-66
2022/10/04 04:50:36;;;;;;;3.70;1.65;;;7.70;99.90;;;;;;5115046;27;20358;-68
2022/10/04 04:53:14;;;;;;;8.93;2.17;;;7.70;99.90;;;;;;5085626;28;20040;-66
2022/10/04 04:55:43;;;;;;;4.63;2.03;;;7.70;99.90;;;;;;5074851;28;20048;-67
2022/10/04 04:58:22;;;;;;;8.45;2.53;;;7.70;99.90;;;;;;5086080;28;20043;-64
2022/10/04 05:01:19;;;;;;;4.60;1.92;;;7.70;99.90;;;;;;5084169;28;20036;-69
2022/10/04 05:04:14;;;;;;;4.07;2.17;;;7.70;99.90;;;;;;5084265;28;20114;-64
2022/10/04 05:06:44;;;;;;;6.22;2.00;;;7.80;99.90;;;;;;5085090;28;20079;-67
2022/10/04 05:09:31;;;;;;;8.15;2.53;;;7.80;99.90;;;;;;5084948;28;20060;-68
2022/10/04 05:12:14;;;;;;;5.43;1.98;;;7.80;99.90;;;;;;5084353;28;20507;-67
2022/10/04 05:14:55;;;;;;;6.50;3.05;;;7.90;99.90;;;;;;5083740;28;20042;-68
2022/10/04 05:17:24;;;;;;;8.98;2.67;;;7.90;99.90;;;;;;5083882;28;20048;-69
2022/10/04 05:19:54;;;;;;;6.45;2.70;;;7.90;99.90;;;;;;5084626;28;20081;-69
2022/10/04 05:22:23;;;;;;;8.27;2.10;;;7.90;99.90;;;;;;5085429;28;20063;-67
2022/10/04 05:24:57;;;;;;;10.07;2.42;;;7.90;99.90;;;;;;5085104;28;20043;-68
2022/10/04 05:27:28;;;;;;;9.60;2.45;;;7.90;99.90;;;;;;5087170;28;20131;-66
2022/10/04 05:30:38;;;;;;;9.05;2.70;;;7.90;99.90;;;;;;5087875;28;20058;-65
2022/10/04 05:33:06;;;;;;;8.07;2.35;;;7.90;99.90;;;;;;5082051;28;20098;-66
2022/10/04 05:36:22;;;;;;;6.40;2.50;;;7.90;99.90;;;;;;5087106;28;20070;-66
2022/10/04 05:38:50;;;;;;;7.68;2.03;;;8.00;99.90;;;;;;5043527;28;20565;-66
2022/10/04 05:41:30;;;;;;;5.03;2.10;;;8.00;99.90;;;;;;5085412;28;20043;-70
2022/10/04 05:43:56;;;;;;;6.38;2.03;;;8.00;99.90;;;;;;5084265;28;20070;-69
2022/10/04 05:46:24;;;;;;;6.82;1.98;;;8.10;99.90;;;;;;5086478;28;20770;-67
2022/10/04 05:48:56;;;;;;;5.38;1.73;;;8.10;99.90;;;;;;5082764;28;20106;-71
2022/10/04 05:51:28;;;;;;;8.65;2.60;;;8.10;99.90;;;;;;5085565;28;20048;-70
2022/10/04 05:53:58;;;;;;;9.93;2.45;;;8.10;99.90;;;;;;5085101;28;20040;-70
2022/10/04 05:56:40;;;;;;;7.50;2.10;;;8.20;99.90;;;;;;5085926;28;20491;-68
2022/10/04 05:59:38;;;;;;;6.20;1.90;;;8.20;99.90;;;;;;5084220;28;20050;-70
2022/10/04 06:02:19;;;;;;;7.95;2.20;;;8.20;99.90;;;;;;5078879;27;20031;-68
2022/10/04 06:04:58;;;;;;;5.30;2.55;;;8.10;99.90;;;;;;5082681;28;20040;-71
2022/10/04 06:07:28;;;;;;;6.72;1.75;;;8.10;99.90;;;;;;5087140;28;20047;-67
2022/10/04 06:09:59;;;;;;;11.90;2.85;;;8.10;99.90;;;;;;5084575;28;20036;-67
2022/10/04 06:12:55;;;;;;;5.72;2.70;;;8.10;99.90;;;;;;5084734;28;20036;-67
2022/10/04 06:15:31;;;;;;;10.15;2.70;;;8.10;99.90;;;;;;5081912;28;20069;-69
2022/10/04 06:18:22;;;;;;;10.75;2.88;;;8.00;99.90;;;;;;5083499;28;20040;-67
2022/10/04 06:21:06;;;;;;;8.27;2.30;;;8.00;99.90;;;;;;5083327;28;20055;-67
2022/10/04 06:23:41;;;;;;;8.48;2.10;;;8.00;99.90;;;;;;5084055;28;20497;-67
2022/10/04 06:26:15;;;;;;;8.65;1.95;;;8.00;99.90;;;;;;5079615;28;20083;-67
2022/10/04 06:29:16;;;;;;;5.53;2.35;;;8.00;99.90;;;;;;5085771;28;20066;-67
2022/10/04 06:31:50;;;;;;;5.20;2.40;;;8.00;99.90;;;;;;5070328;28;20594;-67
2022/10/04 06:34:44;;;;;;;19.50;2.58;;;8.00;99.90;;;;;;5086992;28;20561;-68
2022/10/04 06:37:36;;;;;;;7.55;2.22;;;8.00;99.90;;;;;;5079589;28;20456;-67
2022/10/04 06:40:07;;;;;;;7.07;2.40;;;8.10;99.90;;;;;;5078335;28;20042;-68
2022/10/04 06:43:18;;;;;;;17.00;2.78;;;8.10;99.90;;;;;;5084727;28;20097;-68
2022/10/04 06:46:04;;;;;;;8.90;2.35;;;8.10;99.90;;;;;;5082512;28;20047;-71
2022/10/04 06:48:55;;;;;;;8.80;2.58;;;8.20;99.90;;;;;;5081359;28;20040;-68
2022/10/04 06:51:48;;;;;;;6.40;2.33;;;8.20;99.90;;;;;;5082024;28;20097;-68
2022/10/04 06:54:20;;;;;;;9.05;2.92;;;8.30;99.90;;;;;;5073974;28;20126;-67
2022/10/04 06:57:34;;;;;;;12.30;2.58;;;8.40;99.90;;;;;;5075568;28;20089;-67
2022/10/04 07:00:08;;;;;;;8.80;2.28;;;8.40;99.90;;;;;;5077680;28;20036;-66
2022/10/04 07:02:46;;;;;;;8.30;2.70;;;8.50;99.90;;;;;;5082048;28;20079;-68
2022/10/04 07:05:39;;;;;;;9.90;2.50;;;8.50;99.90;;;;;;5078247;28;20047;-70
2022/10/04 07:08:29;;;;;;;4.85;2.63;;;8.60;99.90;;;;;;5078042;28;20492;-67
2022/10/04 07:11:04;;;;;;;9.88;3.80;;;8.60;99.90;;;;;;5084234;28;20044;-67
2022/10/04 07:13:58;;;;;;;11.25;2.83;;;8.60;99.90;;;;;;5082766;28;20124;-67
2022/10/04 07:16:36;;;;;;;10.55;3.05;;;8.70;99.90;;;;;;5081470;28;20077;-68
2022/10/04 07:19:41;;;;;;;9.02;2.95;;;8.70;99.90;;;;;;5084934;28;20052;-66
2022/10/04 07:22:06;;;;;;;9.93;2.85;;;8.80;99.90;;;;;;5080045;28;20055;-68
2022/10/04 07:24:43;;;;;;;;;;;8.90;99.90;;;;;;5081159;28;20484;-67
2022/10/04 07:27:15;;;;;;;7.05;2.83;;;9.00;99.90;;;;;;5080444;28;19924;-67
2022/10/04 07:29:45;;;;;;;7.55;2.95;;;9.10;99.90;;;;;;5077167;28;20047;-64
2022/10/04 07:32:20;;;;;;;3.53;2.45;;;9.20;99.90;;;;;;5082815;27;20043;-66
2022/10/04 07:35:07;;;;;;;12.07;3.13;;;9.20;99.90;;;;;;5086064;28;20092;-67
2022/10/04 07:37:44;;;;;;;6.85;3.13;;;9.30;99.90;;;;;;5089600;28;20294;-67
2022/10/04 07:40:29;;;;;;;9.73;3.00;;;9.40;99.90;;;;;;5089001;28;20108;-67
2022/10/04 07:43:05;;;;;;;5.35;2.72;;;9.50;99.90;;;;;;5084532;28;20059;-67
2022/10/04 07:45:34;;;;;;;6.50;2.90;;;9.60;99.90;;;;;;5088609;28;20040;-67
2022/10/04 07:48:23;;;;;;;13.80;3.80;;;9.70;99.90;;;;;;5089519;28;20036;-68
2022/10/04 07:50:58;;;;;;;10.02;2.70;;;9.70;99.90;;;;;;5087378;28;20028;-68
2022/10/04 07:53:30;;;;;;;10.98;3.20;;;9.80;99.90;;;;;;5087095;28;20052;-68
2022/10/04 07:56:16;;;;;;;6.93;3.03;;;9.90;99.90;;;;;;5088949;28;20044;-67
2022/10/04 07:59:09;;;;;;;14.23;3.47;;;10.00;99.90;;;;;;5087289;28;20122;-67
2022/10/04 08:01:53;;;;;;;10.70;3.15;;;10.10;99.90;;;;;;5085821;27;20051;-67
2022/10/04 08:04:46;;;;;;;10.88;2.80;;;10.20;99.90;;;;;;5079223;28;20390;-68
2022/10/04 08:07:30;;;;;;;8.45;3.03;;;10.30;99.90;;;;;;5083340;28;20710;-68
2022/10/04 08:10:05;;;;;;;9.20;2.92;;;10.40;99.90;;;;;;5083502;28;20028;-67
2022/10/04 08:13:02;;;;;;;8.45;3.08;;;10.50;99.90;;;;;;5087841;28;20064;-67
2022/10/04 08:15:31;;;;;;;;;;;10.60;99.90;;;;;;5081557;28;20101;-67
2022/10/04 08:18:21;;;;;;;9.55;2.80;;;10.70;99.90;;;;;;5084140;28;19981;-68
2022/10/04 08:21:00;;;;;;;6.45;2.63;;;10.90;99.90;;;;;;5081267;28;20043;-66
2022/10/04 08:23:43;;;;;;;9.18;3.17;;;11.00;99.90;;;;;;5084847;28;20447;-67
2022/10/04 08:26:46;;;;;;;10.73;2.88;;;11.10;99.90;;;;;;5081351;28;20123;-67
2022/10/04 08:29:50;;;;;;;6.25;2.88;;;11.20;99.90;;;;;;5086779;28;20044;-68
2022/10/04 08:32:34;;;;;;;12.20;2.85;;;11.30;99.90;;;;;;5077648;28;20044;-67
2022/10/04 08:35:06;;;;;;;8.85;2.53;;;11.30;99.90;;;;;;5079567;28;20043;-67
2022/10/04 08:37:39;;;;;;;7.10;2.60;;;11.40;99.90;;;;;;5086072;28;20075;-67
2022/10/04 08:40:22;;;;;;;7.15;2.95;;;11.50;99.90;;;;;;5086219;28;20032;-68
2022/10/04 08:42:51;;;;;;;8.10;2.95;;;11.60;99.90;;;;;;5082291;28;20032;-68
2022/10/04 08:45:48;;;;;;;9.65;2.85;;;11.80;99.90;;;;;;5088117;28;20063;-67
2022/10/04 08:48:45;;;;;;;10.82;3.03;;;11.90;99.90;;;;;;5086098;28;20040;-68
2022/10/04 08:51:32;;;;;;;9.50;3.00;;;12.10;99.90;;;;;;5076949;28;20052;-69
2022/10/04 08:54:25;;;;;;;10.32;3.15;;;12.20;99.90;;;;;;5088119;28;20040;-68
2022/10/04 08:57:09;;;;;;;6.38;2.65;;;12.40;99.90;;;;;;5085921;28;20157;-67
2022/10/04 08:59:49;;;;;;;8.95;2.92;;;12.60;99.90;;;;;;5084852;28;20127;-67
2022/10/04 09:02:37;;;;;;;7.95;2.63;;;12.70;99.90;;;;;;5082472;28;20064;-67
2022/10/04 09:05:44;;;;;;;6.55;2.55;;;12.90;99.90;;;;;;5078975;28;20504;-66
2022/10/04 09:08:44;;;;;;;7.90;2.83;;;13.10;99.90;;;;;;5085480;28;20043;-69
2022/10/04 09:11:15;;;;;;;9.07;3.00;;;13.20;99.90;;;;;;5081378;28;20064;-67
2022/10/04 09:14:00;;;;;;;6.68;3.00;;;13.30;99.90;;;;;;5084184;28;20039;-70
2022/10/04 09:16:48;;;;;;;9.95;2.63;;;13.50;99.90;;;;;;5080189;28;20050;-67
2022/10/04 09:19:44;;;;;;;6.82;2.65;;;13.60;99.90;;;;;;5084971;28;20077;-69
2022/10/04 09:22:33;;;;;;;17.33;3.92;;;13.60;99.90;;;;;;5084355;28;20151;-68
2022/10/04 09:25:42;;;;;;;9.68;2.58;;;13.80;99.90;;;;;;5079370;28;20036;-67
2022/10/04 09:28:37;;;;;;;8.23;3.35;;;13.80;99.90;;;;;;5017927;28;20355;-69
2022/10/04 09:31:33;;;;;;;6.88;2.90;;;13.90;99.90;;;;;;5080956;27;20039;-69
2022/10/04 09:34:26;;;;;;;10.02;3.58;;;14.00;99.90;;;;;;5080996;28;20047;-67
2022/10/04 09:37:29;;;;;;;11.75;3.70;;;14.20;99.90;;;;;;5079781;28;20123;-67
2022/10/04 09:40:20;;;;;;;7.50;2.78;;;14.20;99.90;;;;;;5079654;28;20040;-68
2022/10/04 09:43:24;;;;;;;9.93;2.72;;;14.40;99.90;;;;;;5084993;28;20044;-68
2022/10/04 09:46:17;;;;;;;6.80;2.55;;;14.50;99.90;;;;;;5085984;28;20043;-67
2022/10/04 09:49:12;;;;;;;5.95;2.65;;;14.60;99.90;;;;;;5078877;28;20131;-67
2022/10/04 09:52:34;;;;;;;12.85;3.53;;;14.80;99.90;;;;;;5084246;28;20558;-67
2022/10/04 09:55:39;;;;;;;8.55;3.17;;;15.00;99.90;;;;;;5016087;28;20037;-68
2022/10/04 09:58:27;;;;;;;7.63;2.53;;;15.10;99.90;;;;;;5013664;28;20033;-68
2022/10/04 10:01:10;;;;;;;7.25;2.42;;;15.20;99.90;;;;;;5082418;27;20131;-68
2022/10/04 10:04:01;;;;;;;17.88;2.38;;;15.30;99.90;;;;;;5082153;28;20553;-67
2022/10/04 10:06:40;;;;;;;10.82;2.38;;;15.40;99.90;;;;;;5083424;28;20411;-67
2022/10/04 10:16:09;;;;;;;8.75;2.40;;;15.60;98.30;;;;;;5081337;28;20115;-69
2022/10/04 10:18:45;;;;;;;6.97;2.65;;;15.60;98.20;;;;;;5084526;28;20046;-71
2022/10/04 10:21:46;;;;;;;3.33;1.90;;;15.70;98.70;;;;;;5085085;28;20068;-71
2022/10/04 10:24:42;;;;;;;6.10;2.25;;;15.80;98.20;;;;;;5083198;28;20044;-67
2022/10/04 10:27:39;;;;;;;7.65;2.25;;;15.90;98.00;;;;;;5080402;28;20058;-67
2022/10/04 10:30:19;;;;;;;7.47;1.80;;;16.00;96.90;;;;;;5081663;28;20044;-67
2022/10/04 10:33:00;;;;;;;5.30;2.13;;;15.90;96.90;;;;;;5077046;28;20048;-66
2022/10/04 10:35:52;;;;;;;7.65;2.45;;;15.90;96.30;;;;;;5085365;28;20377;-68
2022/10/04 10:38:45;;;;;;;6.18;2.08;;;16.00;96.80;;;;;;5082732;28;20043;-65
2022/10/04 10:41:38;;;;;;;6.63;1.83;;;16.10;95.60;;;;;;5083677;28;20043;-68
2022/10/04 10:44:25;;;;;;;3.95;2.08;;;16.10;96.60;;;;;;5084022;28;20504;-71
2022/10/04 10:47:19;;;;;;;5.32;1.70;;;16.30;97.30;;;;;;5080472;28;20089;-67
2022/10/04 10:49:58;;;;;;;2.42;1.42;;;16.40;96.40;;;;;;5083260;28;20036;-67
2022/10/04 10:52:42;;;;;;;7.53;1.65;;;16.50;94.40;;;;;;5079515;28;20404;-67
2022/10/04 10:55:11;;;;;;;5.38;1.80;;;16.50;93.90;;;;;;5079979;28;20036;-64
2022/10/04 10:57:37;;;;;;;2.95;1.58;;;16.40;93.80;;;;;;5086346;28;20094;-65
2022/10/04 11:00:05;;;;;;;;;;;16.50;93.70;;;;;;5091520;28;20055;-66
2022/10/04 11:03:06;;;;;;;5.65;2.05;;;16.60;94.10;;;;;;5088024;28;20400;-66
2022/10/04 11:06:07;;;;;;;5.35;1.75;;;16.80;95.00;;;;;;5091945;28;20085;-68
2022/10/04 11:08:54;;;;;;;7.65;1.73;;;16.80;93.40;;;;;;5081285;28;20148;-66
2022/10/04 11:11:58;;;;;;;3.90;1.80;;;16.80;94.20;;;;;;5085018;28;20032;-66
2022/10/04 11:14:45;;;;;;;3.92;1.50;;;17.00;93.50;;;;;;5089459;28;20047;-68
2022/10/04 11:17:37;;;;;;;6.88;1.70;;;17.10;94.10;;;;;;5085794;28;20046;-69
2022/10/04 11:20:36;;;;;;;6.13;1.45;;;17.20;93.90;;;;;;5080018;28;20586;-68
2022/10/04 11:23:27;;;;;;;5.65;1.80;;;17.10;92.70;;;;;;5082074;28;20039;-68
2022/10/04 11:26:04;;;;;;;5.10;1.50;;;17.10;92.30;;;;;;5079605;28;20036;-67
2022/10/04 11:28:59;;;;;;;7.38;1.50;;;17.20;93.80;;;;;;5083721;28;20058;-65
2022/10/04 11:31:44;;;;;;;1.92;1.38;;;17.30;91.20;;;;;;5067723;28;20795;-66
2022/10/04 11:34:41;;;;;;;3.17;1.52;;;17.40;93.00;;;;;;5084581;28;20109;-67
2022/10/04 11:37:25;;;;;;;3.65;1.25;;;17.50;92.50;;;;;;5078313;28;20043;-66
2022/10/04 11:40:19;;;;;;;6.05;2.08;;;17.60;93.70;;;;;;5083165;28;20040;-69
2022/10/04 11:43:30;;;;;;;3.45;1.48;;;17.60;91.70;;;;;;5084048;28;20135;-66
2022/10/04 11:46:17;;;;;;;2.78;1.35;;;17.80;93.70;;;;;;5051739;28;20059;-66
2022/10/04 11:48:58;;;;;;;3.70;1.33;;;17.80;92.50;;;;;;5085671;28;20044;-68
2022/10/04 11:51:33;;;;;;;3.60;1.15;;;17.80;93.40;;;;;;5088121;28;20067;-68
2022/10/04 11:54:12;;;;;;;2.88;1.45;;;17.80;92.90;;;;;;5078790;28;20040;-68
2022/10/04 11:57:03;;;;;;;2.58;1.30;;;17.60;90.90;;;;;;5085541;28;20083;-67
2022/10/04 11:59:42;;;;;;;4.90;1.60;;;17.50;92.50;;;;;;5083784;28;20051;-67
2022/10/04 12:02:32;;;;;;;5.85;1.30;;;17.40;91.80;;;;;;5078612;28;21235;-68
2022/10/04 12:05:18;;;;;;;3.10;1.42;;;17.20;92.10;;;;;;5077263;28;20029;-68
2022/10/04 12:08:00;;;;;;;3.63;1.60;;;17.40;92.70;;;;;;5083238;28;20043;-67
2022/10/04 12:10:35;;;;;;;5.10;1.60;;;17.60;93.60;;;;;;5083413;28;20052;-71
2022/10/04 12:13:18;;;;;;;3.17;1.55;;;17.80;94.30;;;;;;5079667;28;20736;-67
2022/10/04 12:16:09;;;;;;;5.55;1.45;;;17.90;93.50;;;;;;5081129;28;20826;-66
2022/10/04 12:18:56;;;;;;;5.38;1.83;;;17.90;93.10;;;;;;5086182;28;20589;-67
2022/10/04 12:21:40;;;;;;;4.03;1.83;;;18.00;93.00;;;;;;5091396;28;20040;-67
2022/10/04 12:25:06;;;;;;;5.75;2.10;;;18.00;92.90;;;;;;5087095;28;20040;-66
2022/10/04 12:27:43;;;;;;;5.22;2.05;;;18.00;93.80;;;;;;5020006;28;20042;-66
2022/10/04 12:30:37;;;;;;;7.53;1.20;;;18.10;94.80;;;;;;5026514;28;20068;-67
2022/10/04 12:33:07;;;;;;;3.55;1.10;;;17.90;88.50;;;;;;5078380;28;20090;-65
2022/10/04 12:36:12;;;;;;;7.68;1.20;;;17.80;88.60;;;;;;5086994;28;20040;-67
2022/10/04 12:39:05;;;;;;;2.70;0.88;;;17.60;86.60;;;;;;5079334;28;20131;-67
2022/10/04 12:41:39;;;;;;;5.30;1.00;;;17.50;84.00;;;;;;5078195;28;20039;-68
2022/10/04 12:44:39;;;;;;;4.50;1.05;;;17.50;86.80;;;;;;5086532;28;20115;-69
2022/10/04 12:47:17;;;;;;;3.30;1.52;;;17.50;86.60;;;;;;5081527;28;20048;-68
2022/10/04 12:49:59;;;;;;;3.78;1.30;;;17.50;85.30;;;;;;5087596;28;20039;-67
2022/10/04 12:52:29;;;;;;;3.40;0.98;;;17.60;87.90;;;;;;5086669;28;20105;-66
2022/10/04 12:55:15;;;;;;;1.25;0.73;;;17.40;86.70;;;;;;5079954;28;20044;-66
2022/10/04 12:58:08;;;;;;;2.45;0.95;;;17.50;89.40;;;;;;5087989;28;20047;-66
2022/10/04 13:00:42;;;;;;;4.22;1.17;;;17.50;88.00;;;;;;5087065;28;20479;-67
2022/10/04 13:03:39;;;;;;;2.30;1.10;;;17.50;89.20;;;;;;5086242;28;20086;-67
2022/10/04 13:06:44;;;;;;;3.63;1.35;;;17.50;88.00;;;;;;5079674;28;20074;-66
2022/10/04 13:09:18;;;;;;;19.42;1.90;;;17.60;88.60;;;;;;5077289;28;20397;-66
2022/10/04 13:11:56;;;;;;;4.32;1.20;;;17.50;87.80;;;;;;5083163;28;20119;-69
2022/10/04 13:14:44;;;;;;;3.58;1.00;;;17.50;86.80;;;;;;5076939;28;20048;-68
2022/10/04 13:17:36;;;;;;;2.88;1.00;;;17.50;86.70;;;;;;5085537;28;20040;-69
2022/10/04 13:20:27;;;;;;;2.95;1.00;;;17.40;86.00;;;;;;5082417;28;20133;-67
2022/10/04 13:23:26;;;;;;;2.72;1.00;;;17.40;87.90;;;;;;5089361;28;20491;-68
2022/10/04 13:26:29;;;;;;;3.13;1.48;;;17.40;88.30;;;;;;5077797;28;20059;-69
2022/10/04 13:29:05;;;;;;;2.92;0.98;;;17.40;87.80;;;;;;5085322;28;20036;-68
2022/10/04 13:31:44;;;;;;;5.60;1.80;;;17.40;88.00;;;;;;5082962;28;20093;-69
2022/10/04 13:34:10;;;;;;;2.95;0.93;;;17.30;89.10;;;;;;5081468;28;20516;-66
2022/10/04 13:36:56;;;;;;;;;;;17.40;89.90;;;;;;5087029;28;20082;-67
2022/10/04 13:39:27;;;;;;;3.35;1.05;;;17.30;88.80;;;;;;5076596;28;20314;-66
2022/10/04 13:42:23;;;;;;;5.32;1.30;;;17.30;88.90;;;;;;5085229;28;20258;-66
2022/10/04 13:44:58;;;;;;;5.10;1.00;;;17.30;90.00;;;;;;5085458;28;20032;-69
2022/10/04 13:47:39;;;;;;;3.70;0.98;;;17.20;89.70;;;;;;5084412;28;20087;-66
2022/10/04 13:50:13;;;;;;;3.47;1.10;;;17.20;89.20;;;;;;5079716;28;20028;-68
2022/10/04 13:58:43;;;;;;;4.25;0.93;;;17.10;89.40;;;;;;5084720;28;20036;-70
2022/10/04 14:01:28;;;;;;;;;;;17.00;90.90;;;;;;5081427;28;20032;-69
2022/10/04 14:03:54;;;;;;;4.63;1.15;;;17.00;92.80;;;;;;5084903;28;20012;-68
2022/10/04 14:06:29;;;;;;;;;;;16.90;90.10;;;;;;5085078;28;20123;-67
2022/10/04 14:09:29;;;;;;;5.60;1.10;;;16.90;90.40;;;;;;5085576;28;20338;-66
2022/10/04 14:12:09;;;;;;;3.63;1.15;;;16.90;90.10;;;;;;5079053;28;20124;-67
2022/10/04 14:15:14;;;;;;;4.40;1.30;;;16.80;90.10;;;;;;5084658;28;20055;-66
2022/10/04 14:17:46;;;;;;;3.22;1.00;;;16.80;90.10;;;;;;5084683;28;20078;-69
2022/10/04 14:20:42;;;;;;;4.68;1.20;;;16.70;90.30;;;;;;5087589;28;20063;-67